sensor_id;sensor_type;location;lat;lon;timestamp;P1;durP1;ratioP1;P2;durP2;ratioP2
21272;SDS011;36726;52.328;10.552;2023-05-10T00:00:39;4.97;;;3.08;;
21272;SDS011;36726;52.328;10.552;2023-05-10T00:03:06;5.70;;;3.17;;
21272;SDS011;36726;52.328;10.552;2023-05-10T00:05:33;4.28;;;3.10;;
21272;SDS011;36726;52.328;10.552;2023-05-10T00:07:59;4.78;;;2.95;;
21272;SDS011;36726;52.328;10.552;2023-05-10T00:10:26;5.53;;;3.33;;
21272;SDS011;36726;52.328;10.552;2023-05-10T00:12:53;4.85;;;2.97;;
21272;SDS011;36726;52.328;10.552;2023-05-10T00:15:19;5.43;;;3.30;;
21272;SDS011;36726;52.328;10.552;2023-05-10T00:17:47;5.68;;;3.10;;
21272;SDS011;36726;52.328;10.552;2023-05-10T00:20:14;4.38;;;2.97;;
21272;SDS011;36726;52.328;10.552;2023-05-10T00:22:41;4.05;;;2.97;;
21272;SDS011;36726;52.328;10.552;2023-05-10T00:25:08;6.22;;;3.60;;
21272;SDS011;36726;52.328;10.552;2023-05-10T00:27:38;5.60;;;3.78;;
21272;SDS011;36726;52.328;10.552;2023-05-10T00:30:04;5.45;;;3.00;;
21272;SDS011;36726;52.328;10.552;2023-05-10T00:32:33;7.13;;;3.42;;
21272;SDS011;36726;52.328;10.552;2023-05-10T00:35:00;6.82;;;3.47;;
21272;SDS011;36726;52.328;10.552;2023-05-10T00:37:27;4.57;;;3.33;;
21272;SDS011;36726;52.328;10.552;2023-05-10T00:39:53;4.30;;;3.03;;
21272;SDS011;36726;52.328;10.552;2023-05-10T00:42:20;6.40;;;3.60;;
21272;SDS011;36726;52.328;10.552;2023-05-10T00:44:47;3.97;;;2.80;;
21272;SDS011;36726;52.328;10.552;2023-05-10T00:47:13;4.57;;;3.17;;
21272;SDS011;36726;52.328;10.552;2023-05-10T00:49:40;4.60;;;3.17;;
21272;SDS011;36726;52.328;10.552;2023-05-10T00:52:08;5.07;;;2.92;;
21272;SDS011;36726;52.328;10.552;2023-05-10T00:54:36;6.38;;;3.40;;
21272;SDS011;36726;52.328;10.552;2023-05-10T00:57:02;4.30;;;3.08;;
21272;SDS011;36726;52.328;10.552;2023-05-10T00:59:29;5.70;;;3.45;;
21272;SDS011;36726;52.328;10.552;2023-05-10T01:01:56;4.38;;;3.33;;
21272;SDS011;36726;52.328;10.552;2023-05-10T01:04:24;5.93;;;3.28;;
21272;SDS011;36726;52.328;10.552;2023-05-10T01:06:56;7.13;;;3.60;;
21272;SDS011;36726;52.328;10.552;2023-05-10T01:09:22;6.20;;;3.10;;
21272;SDS011;36726;52.328;10.552;2023-05-10T01:11:51;9.30;;;3.17;;
21272;SDS011;36726;52.328;10.552;2023-05-10T01:14:18;6.03;;;3.50;;
21272;SDS011;36726;52.328;10.552;2023-05-10T01:16:46;7.85;;;3.08;;
21272;SDS011;36726;52.328;10.552;2023-05-10T01:19:22;5.78;;;3.10;;
21272;SDS011;36726;52.328;10.552;2023-05-10T01:47:16;3.88;;;3.08;;
21272;SDS011;36726;52.328;10.552;2023-05-10T01:49:47;4.80;;;3.40;;
21272;SDS011;36726;52.328;10.552;2023-05-10T01:52:18;4.32;;;3.17;;
21272;SDS011;36726;52.328;10.552;2023-05-10T01:54:50;3.95;;;2.75;;
21272;SDS011;36726;52.328;10.552;2023-05-10T01:57:21;7.65;;;3.47;;
21272;SDS011;36726;52.328;10.552;2023-05-10T01:59:54;4.43;;;3.05;;
21272;SDS011;36726;52.328;10.552;2023-05-10T02:02:21;4.10;;;2.97;;
21272;SDS011;36726;52.328;10.552;2023-05-10T02:04:50;7.30;;;3.30;;
21272;SDS011;36726;52.328;10.552;2023-05-10T02:07:19;4.22;;;2.95;;
21272;SDS011;36726;52.328;10.552;2023-05-10T02:09:47;6.47;;;3.10;;
21272;SDS011;36726;52.328;10.552;2023-05-10T02:12:14;3.72;;;2.92;;
21272;SDS011;36726;52.328;10.552;2023-05-10T02:14:42;3.67;;;2.90;;
21272;SDS011;36726;52.328;10.552;2023-05-10T02:17:11;6.97;;;3.15;;
21272;SDS011;36726;52.328;10.552;2023-05-10T02:19:40;4.25;;;3.10;;
21272;SDS011;36726;52.328;10.552;2023-05-10T02:22:08;4.07;;;2.85;;
21272;SDS011;36726;52.328;10.552;2023-05-10T02:24:35;4.97;;;3.17;;
21272;SDS011;36726;52.328;10.552;2023-05-10T02:27:03;4.82;;;2.85;;
21272;SDS011;36726;52.328;10.552;2023-05-10T02:29:31;6.68;;;3.53;;
21272;SDS011;36726;52.328;10.552;2023-05-10T02:31:58;6.25;;;3.22;;
21272;SDS011;36726;52.328;10.552;2023-05-10T02:34:26;5.95;;;3.28;;
21272;SDS011;36726;52.328;10.552;2023-05-10T02:36:54;7.50;;;3.13;;
21272;SDS011;36726;52.328;10.552;2023-05-10T02:39:21;4.68;;;3.13;;
21272;SDS011;36726;52.328;10.552;2023-05-10T02:41:50;4.72;;;3.08;;
21272;SDS011;36726;52.328;10.552;2023-05-10T02:44:18;11.00;;;3.53;;
21272;SDS011;36726;52.328;10.552;2023-05-10T02:46:46;5.43;;;3.30;;
21272;SDS011;36726;52.328;10.552;2023-05-10T02:49:13;4.03;;;3.00;;
21272;SDS011;36726;52.328;10.552;2023-05-10T02:51:41;11.52;;;3.40;;
21272;SDS011;36726;52.328;10.552;2023-05-10T02:54:15;6.05;;;3.42;;
21272;SDS011;36726;52.328;10.552;2023-05-10T02:56:53;5.22;;;3.08;;
21272;SDS011;36726;52.328;10.552;2023-05-10T02:59:23;4.45;;;3.00;;
21272;SDS011;36726;52.328;10.552;2023-05-10T03:01:50;5.15;;;3.25;;
21272;SDS011;36726;52.328;10.552;2023-05-10T03:04:16;3.83;;;2.95;;
21272;SDS011;36726;52.328;10.552;2023-05-10T03:06:43;7.13;;;3.25;;
21272;SDS011;36726;52.328;10.552;2023-05-10T03:09:11;5.10;;;3.25;;
21272;SDS011;36726;52.328;10.552;2023-05-10T03:17:18;4.80;;;3.38;;
21272;SDS011;36726;52.328;10.552;2023-05-10T03:19:55;10.30;;;3.50;;
21272;SDS011;36726;52.328;10.552;2023-05-10T03:22:25;4.60;;;3.22;;
21272;SDS011;36726;52.328;10.552;2023-05-10T03:25:06;5.10;;;3.25;;
21272;SDS011;36726;52.328;10.552;2023-05-10T03:27:35;4.07;;;3.45;;
21272;SDS011;36726;52.328;10.552;2023-05-10T03:30:05;4.68;;;3.10;;
21272;SDS011;36726;52.328;10.552;2023-05-10T03:32:34;4.28;;;3.22;;
21272;SDS011;36726;52.328;10.552;2023-05-10T03:35:06;7.40;;;3.90;;
21272;SDS011;36726;52.328;10.552;2023-05-10T03:37:34;6.13;;;3.22;;
21272;SDS011;36726;52.328;10.552;2023-05-10T03:40:02;4.60;;;3.25;;
21272;SDS011;36726;52.328;10.552;2023-05-10T03:42:31;4.65;;;3.35;;
21272;SDS011;36726;52.328;10.552;2023-05-10T03:44:58;8.82;;;3.47;;
21272;SDS011;36726;52.328;10.552;2023-05-10T03:47:24;5.65;;;3.40;;
21272;SDS011;36726;52.328;10.552;2023-05-10T03:49:51;8.07;;;3.50;;
21272;SDS011;36726;52.328;10.552;2023-05-10T03:52:19;13.10;;;3.78;;
21272;SDS011;36726;52.328;10.552;2023-05-10T03:54:46;4.22;;;2.97;;
21272;SDS011;36726;52.328;10.552;2023-05-10T03:57:13;7.10;;;3.75;;
21272;SDS011;36726;52.328;10.552;2023-05-10T03:59:39;4.45;;;3.78;;
21272;SDS011;36726;52.328;10.552;2023-05-10T04:02:06;4.85;;;3.30;;
21272;SDS011;36726;52.328;10.552;2023-05-10T04:04:33;5.95;;;3.70;;
21272;SDS011;36726;52.328;10.552;2023-05-10T04:06:59;4.32;;;3.15;;
21272;SDS011;36726;52.328;10.552;2023-05-10T04:09:26;7.35;;;3.72;;
21272;SDS011;36726;52.328;10.552;2023-05-10T04:11:52;5.53;;;3.28;;
21272;SDS011;36726;52.328;10.552;2023-05-10T04:14:19;4.85;;;3.33;;
21272;SDS011;36726;52.328;10.552;2023-05-10T04:16:46;4.40;;;3.33;;
21272;SDS011;36726;52.328;10.552;2023-05-10T04:19:12;6.50;;;3.60;;
21272;SDS011;36726;52.328;10.552;2023-05-10T04:21:39;5.18;;;3.35;;
21272;SDS011;36726;52.328;10.552;2023-05-10T04:24:05;5.88;;;3.67;;
21272;SDS011;36726;52.328;10.552;2023-05-10T04:26:32;4.35;;;3.10;;
21272;SDS011;36726;52.328;10.552;2023-05-10T04:28:58;6.05;;;3.53;;
21272;SDS011;36726;52.328;10.552;2023-05-10T04:31:25;7.97;;;3.00;;
21272;SDS011;36726;52.328;10.552;2023-05-10T04:33:52;4.32;;;3.63;;
21272;SDS011;36726;52.328;10.552;2023-05-10T04:36:19;5.10;;;3.42;;
21272;SDS011;36726;52.328;10.552;2023-05-10T04:38:46;5.80;;;3.45;;
21272;SDS011;36726;52.328;10.552;2023-05-10T04:41:12;5.47;;;3.50;;
21272;SDS011;36726;52.328;10.552;2023-05-10T04:43:39;6.97;;;3.60;;
21272;SDS011;36726;52.328;10.552;2023-05-10T04:46:06;8.43;;;3.38;;
21272;SDS011;36726;52.328;10.552;2023-05-10T04:48:33;6.13;;;3.22;;
21272;SDS011;36726;52.328;10.552;2023-05-10T04:51:00;3.78;;;2.88;;
21272;SDS011;36726;52.328;10.552;2023-05-10T04:53:27;5.05;;;3.10;;
21272;SDS011;36726;52.328;10.552;2023-05-10T04:55:53;5.47;;;3.28;;
21272;SDS011;36726;52.328;10.552;2023-05-10T04:58:20;6.28;;;3.00;;
21272;SDS011;36726;52.328;10.552;2023-05-10T05:00:47;5.50;;;3.00;;
21272;SDS011;36726;52.328;10.552;2023-05-10T05:03:13;5.93;;;3.78;;
21272;SDS011;36726;52.328;10.552;2023-05-10T05:05:40;5.38;;;3.42;;
21272;SDS011;36726;52.328;10.552;2023-05-10T05:08:06;3.78;;;3.08;;
21272;SDS011;36726;52.328;10.552;2023-05-10T05:10:33;5.13;;;3.38;;
21272;SDS011;36726;52.328;10.552;2023-05-10T05:12:59;5.35;;;3.53;;
21272;SDS011;36726;52.328;10.552;2023-05-10T05:15:26;2.55;;;1.95;;
21272;SDS011;36726;52.328;10.552;2023-05-10T05:17:53;3.95;;;3.25;;
21272;SDS011;36726;52.328;10.552;2023-05-10T05:20:20;4.55;;;3.38;;
21272;SDS011;36726;52.328;10.552;2023-05-10T05:22:47;7.20;;;4.10;;
21272;SDS011;36726;52.328;10.552;2023-05-10T05:25:14;5.20;;;3.35;;
21272;SDS011;36726;52.328;10.552;2023-05-10T05:27:41;4.72;;;3.28;;
21272;SDS011;36726;52.328;10.552;2023-05-10T05:30:08;4.75;;;2.92;;
21272;SDS011;36726;52.328;10.552;2023-05-10T05:32:36;5.72;;;3.50;;
21272;SDS011;36726;52.328;10.552;2023-05-10T05:35:03;7.00;;;3.45;;
21272;SDS011;36726;52.328;10.552;2023-05-10T05:37:30;6.72;;;3.35;;
21272;SDS011;36726;52.328;10.552;2023-05-10T05:39:56;6.93;;;3.50;;
21272;SDS011;36726;52.328;10.552;2023-05-10T05:42:23;6.40;;;3.08;;
21272;SDS011;36726;52.328;10.552;2023-05-10T05:44:49;4.90;;;3.15;;
21272;SDS011;36726;52.328;10.552;2023-05-10T05:47:16;5.20;;;3.63;;
21272;SDS011;36726;52.328;10.552;2023-05-10T05:49:43;4.90;;;2.95;;
21272;SDS011;36726;52.328;10.552;2023-05-10T05:52:12;4.57;;;3.33;;
21272;SDS011;36726;52.328;10.552;2023-05-10T05:54:38;8.20;;;3.55;;
21272;SDS011;36726;52.328;10.552;2023-05-10T05:57:05;4.22;;;3.20;;
21272;SDS011;36726;52.328;10.552;2023-05-10T05:59:32;6.05;;;3.33;;
21272;SDS011;36726;52.328;10.552;2023-05-10T06:01:59;7.38;;;3.10;;
21272;SDS011;36726;52.328;10.552;2023-05-10T06:04:26;3.42;;;3.05;;
21272;SDS011;36726;52.328;10.552;2023-05-10T06:06:53;6.72;;;3.13;;
21272;SDS011;36726;52.328;10.552;2023-05-10T06:09:20;5.45;;;3.42;;
21272;SDS011;36726;52.328;10.552;2023-05-10T06:11:46;4.07;;;3.28;;
21272;SDS011;36726;52.328;10.552;2023-05-10T06:14:13;3.78;;;3.13;;
21272;SDS011;36726;52.328;10.552;2023-05-10T06:16:39;4.60;;;3.20;;
21272;SDS011;36726;52.328;10.552;2023-05-10T06:19:06;7.03;;;3.58;;
21272;SDS011;36726;52.328;10.552;2023-05-10T06:21:33;4.50;;;3.20;;
21272;SDS011;36726;52.328;10.552;2023-05-10T06:24:00;6.47;;;3.60;;
21272;SDS011;36726;52.328;10.552;2023-05-10T06:26:28;6.70;;;3.75;;
21272;SDS011;36726;52.328;10.552;2023-05-10T06:28:55;4.78;;;3.47;;
21272;SDS011;36726;52.328;10.552;2023-05-10T06:31:21;4.55;;;3.45;;
21272;SDS011;36726;52.328;10.552;2023-05-10T06:33:48;5.30;;;3.42;;
21272;SDS011;36726;52.328;10.552;2023-05-10T06:36:15;4.05;;;3.30;;
21272;SDS011;36726;52.328;10.552;2023-05-10T06:38:41;5.70;;;3.55;;
21272;SDS011;36726;52.328;10.552;2023-05-10T06:41:08;5.15;;;3.72;;
21272;SDS011;36726;52.328;10.552;2023-05-10T06:43:34;5.63;;;3.72;;
21272;SDS011;36726;52.328;10.552;2023-05-10T06:46:02;4.97;;;3.60;;
21272;SDS011;36726;52.328;10.552;2023-05-10T06:48:29;6.13;;;3.63;;
21272;SDS011;36726;52.328;10.552;2023-05-10T06:50:55;6.90;;;3.97;;
21272;SDS011;36726;52.328;10.552;2023-05-10T06:53:22;7.65;;;3.80;;
21272;SDS011;36726;52.328;10.552;2023-05-10T06:55:49;5.00;;;3.88;;
21272;SDS011;36726;52.328;10.552;2023-05-10T06:58:15;8.85;;;4.55;;
21272;SDS011;36726;52.328;10.552;2023-05-10T07:00:42;6.07;;;3.92;;
21272;SDS011;36726;52.328;10.552;2023-05-10T07:03:10;6.32;;;4.18;;
21272;SDS011;36726;52.328;10.552;2023-05-10T07:05:37;6.35;;;4.03;;
21272;SDS011;36726;52.328;10.552;2023-05-10T07:08:03;7.13;;;4.45;;
21272;SDS011;36726;52.328;10.552;2023-05-10T07:10:30;8.13;;;4.68;;
21272;SDS011;36726;52.328;10.552;2023-05-10T07:12:57;7.07;;;4.13;;
21272;SDS011;36726;52.328;10.552;2023-05-10T07:15:24;7.97;;;4.80;;
21272;SDS011;36726;52.328;10.552;2023-05-10T07:17:50;6.68;;;4.88;;
21272;SDS011;36726;52.328;10.552;2023-05-10T07:20:18;5.95;;;4.43;;
21272;SDS011;36726;52.328;10.552;2023-05-10T07:22:45;6.38;;;4.50;;
21272;SDS011;36726;52.328;10.552;2023-05-10T07:25:11;10.68;;;4.75;;
21272;SDS011;36726;52.328;10.552;2023-05-10T07:27:38;6.60;;;4.45;;
21272;SDS011;36726;52.328;10.552;2023-05-10T07:30:05;8.93;;;4.50;;
21272;SDS011;36726;52.328;10.552;2023-05-10T07:32:31;6.45;;;4.88;;
21272;SDS011;36726;52.328;10.552;2023-05-10T07:34:58;8.88;;;5.32;;
21272;SDS011;36726;52.328;10.552;2023-05-10T07:37:25;7.40;;;4.85;;
21272;SDS011;36726;52.328;10.552;2023-05-10T07:39:51;7.55;;;4.82;;
21272;SDS011;36726;52.328;10.552;2023-05-10T07:42:18;6.82;;;4.78;;
21272;SDS011;36726;52.328;10.552;2023-05-10T07:44:45;7.55;;;4.90;;
21272;SDS011;36726;52.328;10.552;2023-05-10T07:47:12;7.88;;;5.28;;
21272;SDS011;36726;52.328;10.552;2023-05-10T07:49:38;8.10;;;5.30;;
21272;SDS011;36726;52.328;10.552;2023-05-10T07:52:05;7.88;;;4.80;;
21272;SDS011;36726;52.328;10.552;2023-05-10T07:54:31;17.33;;;11.88;;
21272;SDS011;36726;52.328;10.552;2023-05-10T07:56:58;10.10;;;6.38;;
21272;SDS011;36726;52.328;10.552;2023-05-10T07:59:25;8.65;;;4.72;;
21272;SDS011;36726;52.328;10.552;2023-05-10T08:01:52;9.05;;;5.43;;
21272;SDS011;36726;52.328;10.552;2023-05-10T08:04:19;6.43;;;4.75;;
21272;SDS011;36726;52.328;10.552;2023-05-10T08:06:45;6.68;;;4.90;;
21272;SDS011;36726;52.328;10.552;2023-05-10T08:09:12;8.27;;;5.38;;
21272;SDS011;36726;52.328;10.552;2023-05-10T08:11:39;7.65;;;5.65;;
21272;SDS011;36726;52.328;10.552;2023-05-10T08:14:06;5.75;;;4.85;;
21272;SDS011;36726;52.328;10.552;2023-05-10T08:16:32;8.57;;;5.22;;
21272;SDS011;36726;52.328;10.552;2023-05-10T08:18:59;6.47;;;4.90;;
21272;SDS011;36726;52.328;10.552;2023-05-10T08:21:26;7.68;;;5.20;;
21272;SDS011;36726;52.328;10.552;2023-05-10T08:23:52;9.02;;;5.35;;
21272;SDS011;36726;52.328;10.552;2023-05-10T08:26:19;11.65;;;5.32;;
21272;SDS011;36726;52.328;10.552;2023-05-10T08:28:47;9.38;;;5.45;;
21272;SDS011;36726;52.328;10.552;2023-05-10T08:31:14;7.95;;;5.35;;
21272;SDS011;36726;52.328;10.552;2023-05-10T08:33:41;5.40;;;4.57;;
21272;SDS011;36726;52.328;10.552;2023-05-10T08:36:10;7.72;;;4.88;;
21272;SDS011;36726;52.328;10.552;2023-05-10T08:38:37;7.57;;;5.20;;
21272;SDS011;36726;52.328;10.552;2023-05-10T08:41:04;6.95;;;5.13;;
21272;SDS011;36726;52.328;10.552;2023-05-10T08:43:31;6.55;;;4.55;;
21272;SDS011;36726;52.328;10.552;2023-05-10T08:46:01;7.07;;;4.82;;
21272;SDS011;36726;52.328;10.552;2023-05-10T08:48:31;6.43;;;4.75;;
21272;SDS011;36726;52.328;10.552;2023-05-10T08:51:00;7.90;;;4.90;;
21272;SDS011;36726;52.328;10.552;2023-05-10T08:53:29;7.50;;;5.40;;
21272;SDS011;36726;52.328;10.552;2023-05-10T08:55:59;7.55;;;5.25;;
21272;SDS011;36726;52.328;10.552;2023-05-10T08:58:27;7.03;;;5.18;;
21272;SDS011;36726;52.328;10.552;2023-05-10T09:00:54;6.40;;;5.13;;
21272;SDS011;36726;52.328;10.552;2023-05-10T09:03:21;8.15;;;5.22;;
21272;SDS011;36726;52.328;10.552;2023-05-10T09:05:48;8.63;;;5.30;;
21272;SDS011;36726;52.328;10.552;2023-05-10T09:08:15;8.15;;;5.85;;
21272;SDS011;36726;52.328;10.552;2023-05-10T09:10:43;8.27;;;5.35;;
21272;SDS011;36726;52.328;10.552;2023-05-10T09:13:10;8.35;;;5.28;;
21272;SDS011;36726;52.328;10.552;2023-05-10T09:15:38;7.78;;;6.03;;
21272;SDS011;36726;52.328;10.552;2023-05-10T09:18:05;9.65;;;5.20;;
21272;SDS011;36726;52.328;10.552;2023-05-10T09:20:31;7.57;;;5.40;;
21272;SDS011;36726;52.328;10.552;2023-05-10T09:22:58;10.32;;;5.35;;
21272;SDS011;36726;52.328;10.552;2023-05-10T09:25:25;6.50;;;5.10;;
21272;SDS011;36726;52.328;10.552;2023-05-10T09:27:51;8.50;;;6.00;;
21272;SDS011;36726;52.328;10.552;2023-05-10T09:30:26;9.23;;;5.70;;
21272;SDS011;36726;52.328;10.552;2023-05-10T09:32:56;6.80;;;5.57;;
21272;SDS011;36726;52.328;10.552;2023-05-10T09:35:24;6.85;;;5.30;;
21272;SDS011;36726;52.328;10.552;2023-05-10T09:37:55;6.13;;;4.90;;
21272;SDS011;36726;52.328;10.552;2023-05-10T09:40:27;8.02;;;5.53;;
21272;SDS011;36726;52.328;10.552;2023-05-10T09:43:02;7.65;;;5.05;;
21272;SDS011;36726;52.328;10.552;2023-05-10T09:45:32;7.72;;;5.53;;
21272;SDS011;36726;52.328;10.552;2023-05-10T09:48:04;6.28;;;5.47;;
21272;SDS011;36726;52.328;10.552;2023-05-10T09:50:31;7.82;;;5.18;;
21272;SDS011;36726;52.328;10.552;2023-05-10T09:52:59;7.50;;;5.10;;
21272;SDS011;36726;52.328;10.552;2023-05-10T09:58:02;9.50;;;5.32;;
21272;SDS011;36726;52.328;10.552;2023-05-10T10:00:33;8.25;;;5.15;;
21272;SDS011;36726;52.328;10.552;2023-05-10T10:03:01;8.88;;;5.05;;
21272;SDS011;36726;52.328;10.552;2023-05-10T10:05:30;11.13;;;5.13;;
21272;SDS011;36726;52.328;10.552;2023-05-10T10:07:58;7.43;;;4.82;;
21272;SDS011;36726;52.328;10.552;2023-05-10T10:10:26;6.10;;;4.25;;
21272;SDS011;36726;52.328;10.552;2023-05-10T10:12:54;5.18;;;3.58;;
21272;SDS011;36726;52.328;10.552;2023-05-10T10:15:22;6.60;;;3.85;;
21272;SDS011;36726;52.328;10.552;2023-05-10T10:17:49;8.75;;;2.97;;
21272;SDS011;36726;52.328;10.552;2023-05-10T10:20:18;3.22;;;2.42;;
21272;SDS011;36726;52.328;10.552;2023-05-10T10:22:46;3.28;;;2.33;;
21272;SDS011;36726;52.328;10.552;2023-05-10T10:25:14;1.40;;;1.27;;
21272;SDS011;36726;52.328;10.552;2023-05-10T10:35:57;1.20;;;1.10;;
21272;SDS011;36726;52.328;10.552;2023-05-10T10:38:25;1.60;;;1.13;;
21272;SDS011;36726;52.328;10.552;2023-05-10T10:41:27;1.83;;;1.10;;
21272;SDS011;36726;52.328;10.552;2023-05-10T10:49:48;1.15;;;1.00;;
21272;SDS011;36726;52.328;10.552;2023-05-10T11:03:00;2.92;;;2.38;;
21272;SDS011;36726;52.328;10.552;2023-05-10T11:13:30;1.90;;;1.10;;
21272;SDS011;36726;52.328;10.552;2023-05-10T11:16:16;1.35;;;0.95;;
21272;SDS011;36726;52.328;10.552;2023-05-10T11:18:53;1.73;;;1.30;;
21272;SDS011;36726;52.328;10.552;2023-05-10T11:21:30;1.25;;;0.93;;
21272;SDS011;36726;52.328;10.552;2023-05-10T11:23:58;1.40;;;0.98;;
21272;SDS011;36726;52.328;10.552;2023-05-10T11:26:33;1.42;;;0.80;;
21272;SDS011;36726;52.328;10.552;2023-05-10T11:29:01;1.48;;;0.95;;
21272;SDS011;36726;52.328;10.552;2023-05-10T11:31:29;1.38;;;1.15;;
21272;SDS011;36726;52.328;10.552;2023-05-10T11:33:57;1.65;;;1.27;;
21272;SDS011;36726;52.328;10.552;2023-05-10T11:36:28;1.65;;;1.30;;
21272;SDS011;36726;52.328;10.552;2023-05-10T11:38:58;1.40;;;1.02;;
21272;SDS011;36726;52.328;10.552;2023-05-10T11:41:25;1.80;;;1.17;;
21272;SDS011;36726;52.328;10.552;2023-05-10T11:43:54;1.65;;;1.30;;
21272;SDS011;36726;52.328;10.552;2023-05-10T11:46:23;1.30;;;1.20;;
21272;SDS011;36726;52.328;10.552;2023-05-10T11:48:53;2.22;;;1.48;;
21272;SDS011;36726;52.328;10.552;2023-05-10T11:51:24;1.88;;;1.23;;
21272;SDS011;36726;52.328;10.552;2023-05-10T11:53:52;1.58;;;1.00;;
21272;SDS011;36726;52.328;10.552;2023-05-10T11:56:21;1.58;;;1.38;;
21272;SDS011;36726;52.328;10.552;2023-05-10T11:58:54;1.52;;;1.20;;
21272;SDS011;36726;52.328;10.552;2023-05-10T12:01:26;1.73;;;1.23;;
21272;SDS011;36726;52.328;10.552;2023-05-10T12:03:54;5.53;;;1.27;;
21272;SDS011;36726;52.328;10.552;2023-05-10T12:06:29;1.55;;;1.30;;
21272;SDS011;36726;52.328;10.552;2023-05-10T12:08:58;1.83;;;1.27;;
21272;SDS011;36726;52.328;10.552;2023-05-10T12:11:25;1.75;;;1.10;;
21272;SDS011;36726;52.328;10.552;2023-05-10T12:13:54;2.40;;;1.10;;
21272;SDS011;36726;52.328;10.552;2023-05-10T12:16:22;2.58;;;1.20;;
21272;SDS011;36726;52.328;10.552;2023-05-10T12:18:50;3.15;;;1.10;;
21272;SDS011;36726;52.328;10.552;2023-05-10T12:21:21;1.55;;;1.17;;
21272;SDS011;36726;52.328;10.552;2023-05-10T12:23:49;3.60;;;1.13;;
21272;SDS011;36726;52.328;10.552;2023-05-10T12:26:18;1.85;;;1.17;;
21272;SDS011;36726;52.328;10.552;2023-05-10T12:28:49;1.48;;;1.00;;
21272;SDS011;36726;52.328;10.552;2023-05-10T12:31:15;1.45;;;1.00;;
21272;SDS011;36726;52.328;10.552;2023-05-10T12:33:43;1.50;;;1.13;;
21272;SDS011;36726;52.328;10.552;2023-05-10T12:36:12;1.10;;;1.00;;
21272;SDS011;36726;52.328;10.552;2023-05-10T12:38:41;1.20;;;0.90;;
21272;SDS011;36726;52.328;10.552;2023-05-10T12:41:10;1.60;;;1.20;;
21272;SDS011;36726;52.328;10.552;2023-05-10T12:43:38;1.15;;;0.85;;
21272;SDS011;36726;52.328;10.552;2023-05-10T12:46:10;2.53;;;0.90;;
21272;SDS011;36726;52.328;10.552;2023-05-10T12:48:41;1.08;;;0.98;;
21272;SDS011;36726;52.328;10.552;2023-05-10T12:51:09;1.30;;;0.85;;
21272;SDS011;36726;52.328;10.552;2023-05-10T12:53:39;2.65;;;1.88;;
21272;SDS011;36726;52.328;10.552;2023-05-10T12:56:09;3.97;;;2.15;;
21272;SDS011;36726;52.328;10.552;2023-05-10T12:58:36;2.80;;;1.30;;
21272;SDS011;36726;52.328;10.552;2023-05-10T13:01:04;1.00;;;0.80;;
21272;SDS011;36726;52.328;10.552;2023-05-10T13:03:31;1.45;;;1.35;;
21272;SDS011;36726;52.328;10.552;2023-05-10T13:05:58;5.10;;;3.20;;
21272;SDS011;36726;52.328;10.552;2023-05-10T13:08:25;2.38;;;1.38;;
21272;SDS011;36726;52.328;10.552;2023-05-10T13:10:51;0.80;;;0.73;;
21272;SDS011;36726;52.328;10.552;2023-05-10T13:13:18;2.75;;;0.90;;
21272;SDS011;36726;52.328;10.552;2023-05-10T13:15:45;1.02;;;0.80;;
21272;SDS011;36726;52.328;10.552;2023-05-10T13:18:11;1.55;;;0.90;;
21272;SDS011;36726;52.328;10.552;2023-05-10T13:20:38;2.17;;;1.20;;
21272;SDS011;36726;52.328;10.552;2023-05-10T13:23:05;1.27;;;0.98;;
21272;SDS011;36726;52.328;10.552;2023-05-10T13:25:31;1.58;;;1.17;;
21272;SDS011;36726;52.328;10.552;2023-05-10T13:27:58;2.30;;;0.93;;
21272;SDS011;36726;52.328;10.552;2023-05-10T13:30:24;1.90;;;1.27;;
21272;SDS011;36726;52.328;10.552;2023-05-10T13:32:51;4.60;;;1.33;;
21272;SDS011;36726;52.328;10.552;2023-05-10T13:35:18;1.52;;;1.17;;
21272;SDS011;36726;52.328;10.552;2023-05-10T13:37:44;1.20;;;0.95;;
21272;SDS011;36726;52.328;10.552;2023-05-10T13:40:11;1.35;;;0.90;;
21272;SDS011;36726;52.328;10.552;2023-05-10T13:42:38;0.93;;;0.80;;
21272;SDS011;36726;52.328;10.552;2023-05-10T13:45:08;2.30;;;1.13;;
21272;SDS011;36726;52.328;10.552;2023-05-10T13:47:35;1.77;;;1.35;;
21272;SDS011;36726;52.328;10.552;2023-05-10T13:50:02;1.42;;;0.85;;
21272;SDS011;36726;52.328;10.552;2023-05-10T13:52:30;1.80;;;0.90;;
21272;SDS011;36726;52.328;10.552;2023-05-10T13:54:57;1.27;;;0.90;;
21272;SDS011;36726;52.328;10.552;2023-05-10T13:57:23;3.40;;;0.70;;
21272;SDS011;36726;52.328;10.552;2023-05-10T13:59:51;1.48;;;1.00;;
21272;SDS011;36726;52.328;10.552;2023-05-10T14:02:17;1.98;;;1.00;;
21272;SDS011;36726;52.328;10.552;2023-05-10T14:04:44;0.68;;;0.60;;
21272;SDS011;36726;52.328;10.552;2023-05-10T14:07:10;1.48;;;1.38;;
21272;SDS011;36726;52.328;10.552;2023-05-10T14:09:37;1.58;;;1.10;;
21272;SDS011;36726;52.328;10.552;2023-05-10T14:12:03;1.52;;;0.90;;
21272;SDS011;36726;52.328;10.552;2023-05-10T14:14:33;1.48;;;0.98;;
21272;SDS011;36726;52.328;10.552;2023-05-10T14:17:00;5.18;;;4.35;;
21272;SDS011;36726;52.328;10.552;2023-05-10T14:19:26;8.65;;;5.82;;
21272;SDS011;36726;52.328;10.552;2023-05-10T14:21:54;2.97;;;1.80;;
21272;SDS011;36726;52.328;10.552;2023-05-10T14:24:20;0.93;;;0.68;;
21272;SDS011;36726;52.328;10.552;2023-05-10T14:26:47;1.48;;;0.93;;
21272;SDS011;36726;52.328;10.552;2023-05-10T14:29:13;1.02;;;0.80;;
21272;SDS011;36726;52.328;10.552;2023-05-10T14:31:40;1.13;;;0.88;;
21272;SDS011;36726;52.328;10.552;2023-05-10T14:34:07;1.00;;;0.90;;
21272;SDS011;36726;52.328;10.552;2023-05-10T14:36:33;1.75;;;0.90;;
21272;SDS011;36726;52.328;10.552;2023-05-10T14:39:00;1.40;;;0.77;;
21272;SDS011;36726;52.328;10.552;2023-05-10T14:41:27;2.25;;;1.00;;
21272;SDS011;36726;52.328;10.552;2023-05-10T14:43:53;2.72;;;1.00;;
21272;SDS011;36726;52.328;10.552;2023-05-10T14:46:20;1.63;;;0.90;;
21272;SDS011;36726;52.328;10.552;2023-05-10T14:48:47;4.03;;;0.90;;
21272;SDS011;36726;52.328;10.552;2023-05-10T14:51:13;1.10;;;0.82;;
21272;SDS011;36726;52.328;10.552;2023-05-10T14:53:40;2.40;;;1.23;;
21272;SDS011;36726;52.328;10.552;2023-05-10T14:56:06;1.08;;;0.98;;
21272;SDS011;36726;52.328;10.552;2023-05-10T14:58:33;3.28;;;0.85;;
21272;SDS011;36726;52.328;10.552;2023-05-10T15:01:01;1.55;;;0.80;;
21272;SDS011;36726;52.328;10.552;2023-05-10T15:03:28;2.30;;;1.17;;
21272;SDS011;36726;52.328;10.552;2023-05-10T15:05:56;1.13;;;0.70;;
21272;SDS011;36726;52.328;10.552;2023-05-10T15:08:23;1.38;;;0.93;;
21272;SDS011;36726;52.328;10.552;2023-05-10T15:10:51;1.30;;;1.00;;
21272;SDS011;36726;52.328;10.552;2023-05-10T15:13:17;1.67;;;0.80;;
21272;SDS011;36726;52.328;10.552;2023-05-10T15:15:44;0.90;;;0.80;;
21272;SDS011;36726;52.328;10.552;2023-05-10T15:18:11;1.90;;;0.80;;
21272;SDS011;36726;52.328;10.552;2023-05-10T15:20:38;1.58;;;1.20;;
21272;SDS011;36726;52.328;10.552;2023-05-10T15:23:04;1.33;;;0.95;;
21272;SDS011;36726;52.328;10.552;2023-05-10T15:25:31;1.30;;;0.88;;
21272;SDS011;36726;52.328;10.552;2023-05-10T15:28:02;0.88;;;0.80;;
21272;SDS011;36726;52.328;10.552;2023-05-10T15:30:32;1.42;;;0.90;;
21272;SDS011;36726;52.328;10.552;2023-05-10T15:32:59;2.80;;;1.10;;
21272;SDS011;36726;52.328;10.552;2023-05-10T15:35:26;3.17;;;1.13;;
21272;SDS011;36726;52.328;10.552;2023-05-10T15:37:53;1.15;;;0.90;;
21272;SDS011;36726;52.328;10.552;2023-05-10T15:40:20;1.23;;;0.80;;
21272;SDS011;36726;52.328;10.552;2023-05-10T15:42:46;1.55;;;0.70;;